sensor_id;sensor_type;location;lat;lon;timestamp;P1;P2;P0
72793;PMS5003;63436;26.334;50.194;2022-10-16T00:02:24;56;53;
72793;PMS5003;63436;26.334;50.194;2022-10-16T00:04:50;52;48;
72793;PMS5003;63436;26.334;50.194;2022-10-16T00:07:17;50;49;
72793;PMS5003;63436;26.334;50.194;2022-10-16T00:09:39;54;50;
72793;PMS5003;63436;26.334;50.194;2022-10-16T00:12:06;50;50;
72793;PMS5003;63436;26.334;50.194;2022-10-16T00:14:33;51;49;
72793;PMS5003;63436;26.334;50.194;2022-10-16T00:16:56;60;57;
72793;PMS5003;63436;26.334;50.194;2022-10-16T00:19:24;61;54;
72793;PMS5003;63436;26.334;50.194;2022-10-16T00:21:47;60;55;
72793;PMS5003;63436;26.334;50.194;2022-10-16T00:24:12;55;54;
72793;PMS5003;63436;26.334;50.194;2022-10-16T00:26:38;56;52;
72793;PMS5003;63436;26.334;50.194;2022-10-16T00:29:03;59;53;
72793;PMS5003;63436;26.334;50.194;2022-10-16T00:31:29;53;53;
72793;PMS5003;63436;26.334;50.194;2022-10-16T00:33:54;61;51;
72793;PMS5003;63436;26.334;50.194;2022-10-16T00:36:20;61;59;
72793;PMS5003;63436;26.334;50.194;2022-10-16T00:38:45;59;52;
72793;PMS5003;63436;26.334;50.194;2022-10-16T00:41:12;61;50;
72793;PMS5003;63436;26.334;50.194;2022-10-16T00:43:37;56;55;
72793;PMS5003;63436;26.334;50.194;2022-10-16T00:46:01;59;56;
72793;PMS5003;63436;26.334;50.194;2022-10-16T00:48:27;58;58;
72793;PMS5003;63436;26.334;50.194;2022-10-16T00:50:52;58;57;
72793;PMS5003;63436;26.334;50.194;2022-10-16T00:53:17;62;57;
72793;PMS5003;63436;26.334;50.194;2022-10-16T00:55:42;52;51;
72793;PMS5003;63436;26.334;50.194;2022-10-16T00:58:08;56;54;
72793;PMS5003;63436;26.334;50.194;2022-10-16T01:00:34;55;55;
72793;PMS5003;63436;26.334;50.194;2022-10-16T01:03:00;57;55;
72793;PMS5003;63436;26.334;50.194;2022-10-16T01:05:25;61;60;
72793;PMS5003;63436;26.334;50.194;2022-10-16T01:07:52;58;55;
72793;PMS5003;63436;26.334;50.194;2022-10-16T01:10:19;60;57;
72793;PMS5003;63436;26.334;50.194;2022-10-16T01:12:41;65;60;
72793;PMS5003;63436;26.334;50.194;2022-10-16T01:15:08;60;57;
72793;PMS5003;63436;26.334;50.194;2022-10-16T01:17:33;64;57;
72793;PMS5003;63436;26.334;50.194;2022-10-16T01:20:01;69;57;
72793;PMS5003;63436;26.334;50.194;2022-10-16T01:22:23;61;57;
72793;PMS5003;63436;26.334;50.194;2022-10-16T01:24:49;62;57;
72793;PMS5003;63436;26.334;50.194;2022-10-16T01:27:13;62;60;
72793;PMS5003;63436;26.334;50.194;2022-10-16T01:29:40;63;54;
72793;PMS5003;63436;26.334;50.194;2022-10-16T01:32:07;59;56;
72793;PMS5003;63436;26.334;50.194;2022-10-16T01:34:31;60;59;
72793;PMS5003;63436;26.334;50.194;2022-10-16T01:36:56;64;59;
72793;PMS5003;63436;26.334;50.194;2022-10-16T01:39:22;66;63;
72793;PMS5003;63436;26.334;50.194;2022-10-16T01:41:46;61;57;
72793;PMS5003;63436;26.334;50.194;2022-10-16T01:44:11;59;58;
72793;PMS5003;63436;26.334;50.194;2022-10-16T01:46:39;64;58;
72793;PMS5003;63436;26.334;50.194;2022-10-16T01:49:02;60;58;
72793;PMS5003;63436;26.334;50.194;2022-10-16T01:51:27;68;61;
72793;PMS5003;63436;26.334;50.194;2022-10-16T01:53:54;58;55;
72793;PMS5003;63436;26.334;50.194;2022-10-16T01:56:19;65;57;
72793;PMS5003;63436;26.334;50.194;2022-10-16T01:58:45;64;57;
72793;PMS5003;63436;26.334;50.194;2022-10-16T02:01:10;60;55;
72793;PMS5003;63436;26.334;50.194;2022-10-16T02:03:36;67;61;
72793;PMS5003;63436;26.334;50.194;2022-10-16T02:06:01;67;61;
72793;PMS5003;63436;26.334;50.194;2022-10-16T02:08:27;66;62;
72793;PMS5003;63436;26.334;50.194;2022-10-16T02:10:52;64;57;
72793;PMS5003;63436;26.334;50.194;2022-10-16T02:13:18;65;60;
72793;PMS5003;63436;26.334;50.194;2022-10-16T02:15:42;65;60;
72793;PMS5003;63436;26.334;50.194;2022-10-16T02:18:09;66;59;
72793;PMS5003;63436;26.334;50.194;2022-10-16T02:20:36;61;57;
72793;PMS5003;63436;26.334;50.194;2022-10-16T02:22:59;69;64;
72793;PMS5003;63436;26.334;50.194;2022-10-16T02:25:26;62;60;
72793;PMS5003;63436;26.334;50.194;2022-10-16T02:27:51;65;62;
72793;PMS5003;63436;26.334;50.194;2022-10-16T02:30:17;66;62;
72793;PMS5003;63436;26.334;50.194;2022-10-16T02:32:42;66;62;
72793;PMS5003;63436;26.334;50.194;2022-10-16T02:35:07;66;62;
72793;PMS5003;63436;26.334;50.194;2022-10-16T02:37:32;69;63;
72793;PMS5003;63436;26.334;50.194;2022-10-16T02:39:58;68;62;
72793;PMS5003;63436;26.334;50.194;2022-10-16T02:42:27;69;62;
72793;PMS5003;63436;26.334;50.194;2022-10-16T02:44:48;65;62;
72793;PMS5003;63436;26.334;50.194;2022-10-16T02:47:14;65;59;
72793;PMS5003;63436;26.334;50.194;2022-10-16T02:49:40;65;58;
72793;PMS5003;63436;26.334;50.194;2022-10-16T02:52:05;61;61;
72793;PMS5003;63436;26.334;50.194;2022-10-16T02:54:31;67;63;
72793;PMS5003;63436;26.334;50.194;2022-10-16T02:56:56;72;67;
72793;PMS5003;63436;26.334;50.194;2022-10-16T02:59:21;61;57;
72793;PMS5003;63436;26.334;50.194;2022-10-16T03:01:46;61;59;
72793;PMS5003;63436;26.334;50.194;2022-10-16T03:04:11;69;61;
72793;PMS5003;63436;26.334;50.194;2022-10-16T03:06:37;61;58;
72793;PMS5003;63436;26.334;50.194;2022-10-16T03:09:02;64;60;
72793;PMS5003;63436;26.334;50.194;2022-10-16T03:11:28;67;61;
72793;PMS5003;63436;26.334;50.194;2022-10-16T03:13:53;64;61;
72793;PMS5003;63436;26.334;50.194;2022-10-16T03:16:19;69;63;
72793;PMS5003;63436;26.334;50.194;2022-10-16T03:18:47;62;53;
72793;PMS5003;63436;26.334;50.194;2022-10-16T03:21:10;64;58;
72793;PMS5003;63436;26.334;50.194;2022-10-16T03:23:36;70;65;
72793;PMS5003;63436;26.334;50.194;2022-10-16T03:26:01;65;61;
72793;PMS5003;63436;26.334;50.194;2022-10-16T03:28:26;74;69;
72793;PMS5003;63436;26.334;50.194;2022-10-16T03:30:52;66;62;
72793;PMS5003;63436;26.334;50.194;2022-10-16T03:33:17;73;66;
72793;PMS5003;63436;26.334;50.194;2022-10-16T03:35:43;66;62;
72793;PMS5003;63436;26.334;50.194;2022-10-16T03:38:08;67;62;
72793;PMS5003;63436;26.334;50.194;2022-10-16T03:40:34;64;62;
72793;PMS5003;63436;26.334;50.194;2022-10-16T03:42:59;62;59;
72793;PMS5003;63436;26.334;50.194;2022-10-16T03:45:25;67;65;
72793;PMS5003;63436;26.334;50.194;2022-10-16T03:47:50;62;61;
72793;PMS5003;63436;26.334;50.194;2022-10-16T03:50:16;65;63;
72793;PMS5003;63436;26.334;50.194;2022-10-16T03:52:41;72;65;
72793;PMS5003;63436;26.334;50.194;2022-10-16T03:55:07;70;67;
72793;PMS5003;63436;26.334;50.194;2022-10-16T03:57:32;70;67;
72793;PMS5003;63436;26.334;50.194;2022-10-16T03:59:58;56;56;
72793;PMS5003;63436;26.334;50.194;2022-10-16T04:02:23;62;58;
72793;PMS5003;63436;26.334;50.194;2022-10-16T04:04:48;63;62;
72793;PMS5003;63436;26.334;50.194;2022-10-16T04:07:14;66;63;
72793;PMS5003;63436;26.334;50.194;2022-10-16T04:09:38;63;55;
72793;PMS5003;63436;26.334;50.194;2022-10-16T04:12:04;68;65;
72793;PMS5003;63436;26.334;50.194;2022-10-16T04:14:29;60;57;
72793;PMS5003;63436;26.334;50.194;2022-10-16T04:16:55;62;60;
72793;PMS5003;63436;26.334;50.194;2022-10-16T04:19:20;68;64;
72793;PMS5003;63436;26.334;50.194;2022-10-16T04:21:46;69;64;
72793;PMS5003;63436;26.334;50.194;2022-10-16T04:24:11;59;59;
72793;PMS5003;63436;26.334;50.194;2022-10-16T04:26:36;66;61;
72793;PMS5003;63436;26.334;50.194;2022-10-16T04:29:02;61;60;
72793;PMS5003;63436;26.334;50.194;2022-10-16T04:31:27;57;57;
72793;PMS5003;63436;26.334;50.194;2022-10-16T04:33:52;60;58;
72793;PMS5003;63436;26.334;50.194;2022-10-16T04:36:18;61;55;
72793;PMS5003;63436;26.334;50.194;2022-10-16T04:38:43;57;57;
72793;PMS5003;63436;26.334;50.194;2022-10-16T04:41:09;57;54;
72793;PMS5003;63436;26.334;50.194;2022-10-16T04:43:34;59;56;
72793;PMS5003;63436;26.334;50.194;2022-10-16T04:45:59;54;51;
72793;PMS5003;63436;26.334;50.194;2022-10-16T04:48:25;58;55;
72793;PMS5003;63436;26.334;50.194;2022-10-16T04:50:50;59;56;
72793;PMS5003;63436;26.334;50.194;2022-10-16T04:53:16;56;52;
72793;PMS5003;63436;26.334;50.194;2022-10-16T04:55:42;57;53;
72793;PMS5003;63436;26.334;50.194;2022-10-16T04:58:07;58;54;
72793;PMS5003;63436;26.334;50.194;2022-10-16T05:00:33;54;52;
72793;PMS5003;63436;26.334;50.194;2022-10-16T05:02:58;58;56;
72793;PMS5003;63436;26.334;50.194;2022-10-16T05:05:23;56;56;
72793;PMS5003;63436;26.334;50.194;2022-10-16T05:07:50;57;55;
72793;PMS5003;63436;26.334;50.194;2022-10-16T05:10:15;57;57;
72793;PMS5003;63436;26.334;50.194;2022-10-16T05:12:40;58;57;
72793;PMS5003;63436;26.334;50.194;2022-10-16T05:15:06;57;56;
72793;PMS5003;63436;26.334;50.194;2022-10-16T05:17:31;59;56;
72793;PMS5003;63436;26.334;50.194;2022-10-16T05:19:57;66;59;
72793;PMS5003;63436;26.334;50.194;2022-10-16T05:22:22;63;58;
72793;PMS5003;63436;26.334;50.194;2022-10-16T05:24:48;61;58;
72793;PMS5003;63436;26.334;50.194;2022-10-16T05:27:14;59;59;
72793;PMS5003;63436;26.334;50.194;2022-10-16T05:29:38;58;56;
72793;PMS5003;63436;26.334;50.194;2022-10-16T05:32:04;61;55;
72793;PMS5003;63436;26.334;50.194;2022-10-16T05:34:30;65;60;
72793;PMS5003;63436;26.334;50.194;2022-10-16T05:36:55;61;58;
72793;PMS5003;63436;26.334;50.194;2022-10-16T05:39:20;59;56;
72793;PMS5003;63436;26.334;50.194;2022-10-16T05:44:12;57;57;
72793;PMS5003;63436;26.334;50.194;2022-10-16T05:46:38;54;54;
72793;PMS5003;63436;26.334;50.194;2022-10-16T05:49:04;53;49;
72793;PMS5003;63436;26.334;50.194;2022-10-16T05:51:28;56;53;
72793;PMS5003;63436;26.334;50.194;2022-10-16T05:53:53;55;54;
72793;PMS5003;63436;26.334;50.194;2022-10-16T05:56:20;55;52;
72793;PMS5003;63436;26.334;50.194;2022-10-16T05:58:45;62;61;
72793;PMS5003;63436;26.334;50.194;2022-10-16T06:01:11;62;61;
72793;PMS5003;63436;26.334;50.194;2022-10-16T06:03:35;65;63;
72793;PMS5003;63436;26.334;50.194;2022-10-16T06:08:26;61;59;
72793;PMS5003;63436;26.334;50.194;2022-10-16T06:13:17;59;58;
72793;PMS5003;63436;26.334;50.194;2022-10-16T06:15:47;62;58;
72793;PMS5003;63436;26.334;50.194;2022-10-16T06:20:46;63;57;
72793;PMS5003;63436;26.334;50.194;2022-10-16T06:22:59;64;58;
72793;PMS5003;63436;26.334;50.194;2022-10-16T06:25:26;62;60;
72793;PMS5003;63436;26.334;50.194;2022-10-16T06:27:51;69;63;
72793;PMS5003;63436;26.334;50.194;2022-10-16T06:30:16;68;64;
72793;PMS5003;63436;26.334;50.194;2022-10-16T06:32:44;60;59;
72793;PMS5003;63436;26.334;50.194;2022-10-16T06:35:08;65;58;
72793;PMS5003;63436;26.334;50.194;2022-10-16T06:37:34;63;57;
72793;PMS5003;63436;26.334;50.194;2022-10-16T06:39:59;67;60;
72793;PMS5003;63436;26.334;50.194;2022-10-16T06:42:25;60;58;
72793;PMS5003;63436;26.334;50.194;2022-10-16T06:44:50;64;62;
72793;PMS5003;63436;26.334;50.194;2022-10-16T06:47:17;60;58;
72793;PMS5003;63436;26.334;50.194;2022-10-16T06:49:47;66;64;
72793;PMS5003;63436;26.334;50.194;2022-10-16T06:52:07;66;62;
72793;PMS5003;63436;26.334;50.194;2022-10-16T06:54:33;59;59;
72793;PMS5003;63436;26.334;50.194;2022-10-16T06:56:58;65;60;
72793;PMS5003;63436;26.334;50.194;2022-10-16T06:59:23;66;61;
72793;PMS5003;63436;26.334;50.194;2022-10-16T07:01:49;68;64;
72793;PMS5003;63436;26.334;50.194;2022-10-16T07:04:15;69;65;
72793;PMS5003;63436;26.334;50.194;2022-10-16T07:06:40;69;65;
72793;PMS5003;63436;26.334;50.194;2022-10-16T07:11:31;72;69;
72793;PMS5003;63436;26.334;50.194;2022-10-16T07:13:56;66;65;
72793;PMS5003;63436;26.334;50.194;2022-10-16T07:16:22;67;62;
72793;PMS5003;63436;26.334;50.194;2022-10-16T07:18:48;66;62;
72793;PMS5003;63436;26.334;50.194;2022-10-16T07:21:13;66;64;
72793;PMS5003;63436;26.334;50.194;2022-10-16T07:23:39;71;67;
72793;PMS5003;63436;26.334;50.194;2022-10-16T07:26:04;64;60;
72793;PMS5003;63436;26.334;50.194;2022-10-16T07:28:30;65;63;
72793;PMS5003;63436;26.334;50.194;2022-10-16T07:30:59;65;61;
72793;PMS5003;63436;26.334;50.194;2022-10-16T07:33:21;64;61;
72793;PMS5003;63436;26.334;50.194;2022-10-16T07:35:51;66;61;
72793;PMS5003;63436;26.334;50.194;2022-10-16T07:38:10;61;58;
72793;PMS5003;63436;26.334;50.194;2022-10-16T07:40:42;65;60;
72793;PMS5003;63436;26.334;50.194;2022-10-16T07:43:02;59;59;
72793;PMS5003;63436;26.334;50.194;2022-10-16T07:45:27;57;57;
72793;PMS5003;63436;26.334;50.194;2022-10-16T07:47:53;66;63;
72793;PMS5003;63436;26.334;50.194;2022-10-16T07:50:18;55;53;
72793;PMS5003;63436;26.334;50.194;2022-10-16T07:55:10;57;53;
72793;PMS5003;63436;26.334;50.194;2022-10-16T07:57:35;60;58;
72793;PMS5003;63436;26.334;50.194;2022-10-16T08:00:06;53;52;
72793;PMS5003;63436;26.334;50.194;2022-10-16T08:02:25;47;46;
72793;PMS5003;63436;26.334;50.194;2022-10-16T08:07:17;43;42;
72793;PMS5003;63436;26.334;50.194;2022-10-16T08:09:42;46;39;
72793;PMS5003;63436;26.334;50.194;2022-10-16T08:12:08;37;36;
72793;PMS5003;63436;26.334;50.194;2022-10-16T08:14:34;51;47;
72793;PMS5003;63436;26.334;50.194;2022-10-16T08:16:59;50;49;
72793;PMS5003;63436;26.334;50.194;2022-10-16T08:19:25;44;43;
72793;PMS5003;63436;26.334;50.194;2022-10-16T08:21:51;44;43;
72793;PMS5003;63436;26.334;50.194;2022-10-16T08:24:16;46;44;
72793;PMS5003;63436;26.334;50.194;2022-10-16T08:26:42;45;42;
72793;PMS5003;63436;26.334;50.194;2022-10-16T08:29:08;39;39;
72793;PMS5003;63436;26.334;50.194;2022-10-16T08:31:34;50;49;
72793;PMS5003;63436;26.334;50.194;2022-10-16T08:33:59;45;43;
72793;PMS5003;63436;26.334;50.194;2022-10-16T08:36:25;42;42;
72793;PMS5003;63436;26.334;50.194;2022-10-16T08:38:50;46;42;
72793;PMS5003;63436;26.334;50.194;2022-10-16T08:41:20;44;43;
72793;PMS5003;63436;26.334;50.194;2022-10-16T08:43:56;52;46;
72793;PMS5003;63436;26.334;50.194;2022-10-16T08:48:34;45;44;
72793;PMS5003;63436;26.334;50.194;2022-10-16T08:50:58;50;50;
72793;PMS5003;63436;26.334;50.194;2022-10-16T08:53:24;48;47;
72793;PMS5003;63436;26.334;50.194;2022-10-16T08:55:50;54;50;
72793;PMS5003;63436;26.334;50.194;2022-10-16T08:58:15;52;48;
72793;PMS5003;63436;26.334;50.194;2022-10-16T09:00:39;53;52;
72793;PMS5003;63436;26.334;50.194;2022-10-16T09:03:06;51;51;
72793;PMS5003;63436;26.334;50.194;2022-10-16T09:07:58;56;55;
72793;PMS5003;63436;26.334;50.194;2022-10-16T09:10:25;54;52;
72793;PMS5003;63436;26.334;50.194;2022-10-16T09:12:48;52;52;
72793;PMS5003;63436;26.334;50.194;2022-10-16T09:15:14;54;48;
72793;PMS5003;63436;26.334;50.194;2022-10-16T09:17:38;51;50;
72793;PMS5003;63436;26.334;50.194;2022-10-16T09:20:07;51;47;
72793;PMS5003;63436;26.334;50.194;2022-10-16T09:22:26;53;52;
72793;PMS5003;63436;26.334;50.194;2022-10-16T09:24:51;51;51;
72793;PMS5003;63436;26.334;50.194;2022-10-16T09:27:17;59;54;
72793;PMS5003;63436;26.334;50.194;2022-10-16T09:29:42;56;56;
72793;PMS5003;63436;26.334;50.194;2022-10-16T09:32:10;57;53;
72793;PMS5003;63436;26.334;50.194;2022-10-16T09:34:34;50;48;
72793;PMS5003;63436;26.334;50.194;2022-10-16T09:36:59;56;54;
72793;PMS5003;63436;26.334;50.194;2022-10-16T09:39:24;51;51;
72793;PMS5003;63436;26.334;50.194;2022-10-16T09:41:49;53;49;
72793;PMS5003;63436;26.334;50.194;2022-10-16T09:44:17;54;50;
72793;PMS5003;63436;26.334;50.194;2022-10-16T09:46:41;51;47;
72793;PMS5003;63436;26.334;50.194;2022-10-16T09:51:32;48;47;
72793;PMS5003;63436;26.334;50.194;2022-10-16T09:53:58;54;52;
72793;PMS5003;63436;26.334;50.194;2022-10-16T09:56:24;55;52;
72793;PMS5003;63436;26.334;50.194;2022-10-16T09:58:49;55;52;
72793;PMS5003;63436;26.334;50.194;2022-10-16T10:01:14;56;52;
72793;PMS5003;63436;26.334;50.194;2022-10-16T10:03:40;53;50;
72793;PMS5003;63436;26.334;50.194;2022-10-16T10:06:07;50;47;
72793;PMS5003;63436;26.334;50.194;2022-10-16T10:08:30;52;50;
72793;PMS5003;63436;26.334;50.194;2022-10-16T10:10:56;49;47;
72793;PMS5003;63436;26.334;50.194;2022-10-16T10:13:22;50;46;
72793;PMS5003;63436;26.334;50.194;2022-10-16T10:15:47;53;51;
72793;PMS5003;63436;26.334;50.194;2022-10-16T10:18:15;51;49;
72793;PMS5003;63436;26.334;50.194;2022-10-16T10:20:39;45;45;
72793;PMS5003;63436;26.334;50.194;2022-10-16T10:25:34;47;46;
72793;PMS5003;63436;26.334;50.194;2022-10-16T10:28:06;52;50;
72793;PMS5003;63436;26.334;50.194;2022-10-16T10:30:22;45;43;
72793;PMS5003;63436;26.334;50.194;2022-10-16T10:32:49;50;50;
72793;PMS5003;63436;26.334;50.194;2022-10-16T10:35:14;52;51;
72793;PMS5003;63436;26.334;50.194;2022-10-16T10:37:42;47;46;
72793;PMS5003;63436;26.334;50.194;2022-10-16T10:40:05;59;54;
72793;PMS5003;63436;26.334;50.194;2022-10-16T10:42:29;52;48;
72793;PMS5003;63436;26.334;50.194;2022-10-16T10:44:57;55;50;
72793;PMS5003;63436;26.334;50.194;2022-10-16T10:47:21;50;48;
72793;PMS5003;63436;26.334;50.194;2022-10-16T10:49:48;49;49;
72793;PMS5003;63436;26.334;50.194;2022-10-16T10:52:13;55;51;
72793;PMS5003;63436;26.334;50.194;2022-10-16T10:54:36;55;50;
72793;PMS5003;63436;26.334;50.194;2022-10-16T10:57:02;54;54;
72793;PMS5003;63436;26.334;50.194;2022-10-16T10:59:30;47;44;
72793;PMS5003;63436;26.334;50.194;2022-10-16T11:01:52;51;49;
72793;PMS5003;63436;26.334;50.194;2022-10-16T11:04:23;49;48;
72793;PMS5003;63436;26.334;50.194;2022-10-16T11:06:42;54;50;
72793;PMS5003;63436;26.334;50.194;2022-10-16T11:09:09;47;45;
72793;PMS5003;63436;26.334;50.194;2022-10-16T11:11:33;53;53;
72793;PMS5003;63436;26.334;50.194;2022-10-16T11:13:58;49;46;
72793;PMS5003;63436;26.334;50.194;2022-10-16T11:16:23;51;48;
72793;PMS5003;63436;26.334;50.194;2022-10-16T11:18:50;51;48;
72793;PMS5003;63436;26.334;50.194;2022-10-16T11:21:13;48;48;
72793;PMS5003;63436;26.334;50.194;2022-10-16T11:23:40;47;43;
72793;PMS5003;63436;26.334;50.194;2022-10-16T11:26:04;45;43;
72793;PMS5003;63436;26.334;50.194;2022-10-16T11:28:31;55;51;
72793;PMS5003;63436;26.334;50.194;2022-10-16T11:30:55;54;47;
72793;PMS5003;63436;26.334;50.194;2022-10-16T11:33:23;52;52;
72793;PMS5003;63436;26.334;50.194;2022-10-16T11:35:47;53;49;
72793;PMS5003;63436;26.334;50.194;2022-10-16T11:38:14;56;50;
72793;PMS5003;63436;26.334;50.194;2022-10-16T11:40:37;48;48;
72793;PMS5003;63436;26.334;50.194;2022-10-16T11:43:04;50;47;
72793;PMS5003;63436;26.334;50.194;2022-10-16T11:45:29;49;47;
72793;PMS5003;63436;26.334;50.194;2022-10-16T11:47:54;48;46;
72793;PMS5003;63436;26.334;50.194;2022-10-16T11:50:20;47;44;
72793;PMS5003;63436;26.334;50.194;2022-10-16T11:52:44;51;51;
72793;PMS5003;63436;26.334;50.194;2022-10-16T11:55:13;55;51;
72793;PMS5003;63436;26.334;50.194;2022-10-16T11:57:38;48;46;
72793;PMS5003;63436;26.334;50.194;2022-10-16T12:00:00;52;48;
72793;PMS5003;63436;26.334;50.194;2022-10-16T12:02:29;48;48;
72793;PMS5003;63436;26.334;50.194;2022-10-16T12:04:53;50;47;
72793;PMS5003;63436;26.334;50.194;2022-10-16T12:07:17;52;48;
72793;PMS5003;63436;26.334;50.194;2022-10-16T12:09:41;52;49;
72793;PMS5003;63436;26.334;50.194;2022-10-16T12:14:34;53;52;
72793;PMS5003;63436;26.334;50.194;2022-10-16T12:16:57;51;48;
72793;PMS5003;63436;26.334;50.194;2022-10-16T12:19:23;55;48;
72793;PMS5003;63436;26.334;50.194;2022-10-16T12:21:47;49;46;
72793;PMS5003;63436;26.334;50.194;2022-10-16T12:24:25;45;45;
72793;PMS5003;63436;26.334;50.194;2022-10-16T12:26:38;46;43;
72793;PMS5003;63436;26.334;50.194;2022-10-16T12:29:11;51;47;
72793;PMS5003;63436;26.334;50.194;2022-10-16T12:33:57;55;48;
72793;PMS5003;63436;26.334;50.194;2022-10-16T12:38:47;54;50;
72793;PMS5003;63436;26.334;50.194;2022-10-16T12:41:11;55;55;
72793;PMS5003;63436;26.334;50.194;2022-10-16T12:43:38;52;49;
72793;PMS5003;63436;26.334;50.194;2022-10-16T12:46:03;49;47;
72793;PMS5003;63436;26.334;50.194;2022-10-16T12:48:27;47;46;
72793;PMS5003;63436;26.334;50.194;2022-10-16T12:50:52;53;51;
72793;PMS5003;63436;26.334;50.194;2022-10-16T12:53:19;56;48;
72793;PMS5003;63436;26.334;50.194;2022-10-16T12:55:45;54;47;
72793;PMS5003;63436;26.334;50.194;2022-10-16T12:58:13;56;52;
72793;PMS5003;63436;26.334;50.194;2022-10-16T13:00:35;51;46;
72793;PMS5003;63436;26.334;50.194;2022-10-16T13:03:04;50;48;
72793;PMS5003;63436;26.334;50.194;2022-10-16T13:05:26;51;51;
72793;PMS5003;63436;26.334;50.194;2022-10-16T13:07:52;50;46;
72793;PMS5003;63436;26.334;50.194;2022-10-16T13:10:18;51;47;
72793;PMS5003;63436;26.334;50.194;2022-10-16T13:12:47;55;49;
72793;PMS5003;63436;26.334;50.194;2022-10-16T13:15:14;53;51;
72793;PMS5003;63436;26.334;50.194;2022-10-16T13:17:35;50;47;
72793;PMS5003;63436;26.334;50.194;2022-10-16T13:20:01;57;51;
72793;PMS5003;63436;26.334;50.194;2022-10-16T13:22:25;52;49;
72793;PMS5003;63436;26.334;50.194;2022-10-16T13:24:53;52;51;
72793;PMS5003;63436;26.334;50.194;2022-10-16T13:29:40;58;51;
72793;PMS5003;63436;26.334;50.194;2022-10-16T13:32:07;46;45;
72793;PMS5003;63436;26.334;50.194;2022-10-16T13:34:30;53;49;
72793;PMS5003;63436;26.334;50.194;2022-10-16T13:36:56;48;46;
72793;PMS5003;63436;26.334;50.194;2022-10-16T13:39:22;53;48;
72793;PMS5003;63436;26.334;50.194;2022-10-16T13:41:46;51;47;
72793;PMS5003;63436;26.334;50.194;2022-10-16T13:44:13;46;43;
72793;PMS5003;63436;26.334;50.194;2022-10-16T13:46:37;51;48;
72793;PMS5003;63436;26.334;50.194;2022-10-16T13:49:04;45;44;
72793;PMS5003;63436;26.334;50.194;2022-10-16T13:51:29;48;43;
72793;PMS5003;63436;26.334;50.194;2022-10-16T13:53:54;44;43;
72793;PMS5003;63436;26.334;50.194;2022-10-16T13:56:20;55;48;
72793;PMS5003;63436;26.334;50.194;2022-10-16T13:58:45;53;48;
72793;PMS5003;63436;26.334;50.194;2022-10-16T14:03:36;49;48;
72793;PMS5003;63436;26.334;50.194;2022-10-16T14:06:02;55;47;
72793;PMS5003;63436;26.334;50.194;2022-10-16T14:08:27;50;44;
72793;PMS5003;63436;26.334;50.194;2022-10-16T14:10:53;54;51;
72793;PMS5003;63436;26.334;50.194;2022-10-16T14:13:19;52;50;
72793;PMS5003;63436;26.334;50.194;2022-10-16T14:15:45;50;45;
72793;PMS5003;63436;26.334;50.194;2022-10-16T14:18:13;51;48;
72793;PMS5003;63436;26.334;50.194;2022-10-16T14:20:33;52;45;
72793;PMS5003;63436;26.334;50.194;2022-10-16T14:23:00;50;46;
72793;PMS5003;63436;26.334;50.194;2022-10-16T14:25:26;52;48;
72793;PMS5003;63436;26.334;50.194;2022-10-16T14:30:17;52;51;
72793;PMS5003;63436;26.334;50.194;2022-10-16T14:32:42;57;54;
72793;PMS5003;63436;26.334;50.194;2022-10-16T14:35:11;52;48;
72793;PMS5003;63436;26.334;50.194;2022-10-16T14:37:32;57;50;
72793;PMS5003;63436;26.334;50.194;2022-10-16T14:39:57;50;49;
72793;PMS5003;63436;26.334;50.194;2022-10-16T14:42:23;54;50;
72793;PMS5003;63436;26.334;50.194;2022-10-16T14:44:48;59;57;
72793;PMS5003;63436;26.334;50.194;2022-10-16T14:47:13;54;52;
72793;PMS5003;63436;26.334;50.194;2022-10-16T14:49:38;57;54;
72793;PMS5003;63436;26.334;50.194;2022-10-16T14:52:08;67;61;
72793;PMS5003;63436;26.334;50.194;2022-10-16T14:54:30;65;63;
72793;PMS5003;63436;26.334;50.194;2022-10-16T14:56:56;59;58;
72793;PMS5003;63436;26.334;50.194;2022-10-16T14:59:22;69;65;
72793;PMS5003;63436;26.334;50.194;2022-10-16T15:01:46;74;73;
72793;PMS5003;63436;26.334;50.194;2022-10-16T15:04:12;81;79;
72793;PMS5003;63436;26.334;50.194;2022-10-16T15:06:37;82;82;
72793;PMS5003;63436;26.334;50.194;2022-10-16T15:09:03;75;73;
72793;PMS5003;63436;26.334;50.194;2022-10-16T15:11:28;81;77;
72793;PMS5003;63436;26.334;50.194;2022-10-16T15:13:53;79;76;
72793;PMS5003;63436;26.334;50.194;2022-10-16T15:16:19;75;72;
72793;PMS5003;63436;26.334;50.194;2022-10-16T15:18:45;72;72;
72793;PMS5003;63436;26.334;50.194;2022-10-16T15:21:12;84;83;
72793;PMS5003;63436;26.334;50.194;2022-10-16T15:23:36;78;75;
72793;PMS5003;63436;26.334;50.194;2022-10-16T15:26:01;74;73;
72793;PMS5003;63436;26.334;50.194;2022-10-16T15:28:27;80;79;
72793;PMS5003;63436;26.334;50.194;2022-10-16T15:30:53;77;76;
72793;PMS5003;63436;26.334;50.194;2022-10-16T15:33:18;82;81;
72793;PMS5003;63436;26.334;50.194;2022-10-16T15:35:45;81;80;
72793;PMS5003;63436;26.334;50.194;2022-10-16T15:38:10;86;82;
72793;PMS5003;63436;26.334;50.194;2022-10-16T15:40:34;85;81;
72793;PMS5003;63436;26.334;50.194;2022-10-16T15:43:00;76;74;
72793;PMS5003;63436;26.334;50.194;2022-10-16T15:45:25;81;76;
72793;PMS5003;63436;26.334;50.194;2022-10-16T15:47:50;88;80;
72793;PMS5003;63436;26.334;50.194;2022-10-16T15:50:16;81;76;
72793;PMS5003;63436;26.334;50.194;2022-10-16T15:52:41;86;82;
72793;PMS5003;63436;26.334;50.194;2022-10-16T15:55:07;73;73;
72793;PMS5003;63436;26.334;50.194;2022-10-16T15:57:32;80;78;
72793;PMS5003;63436;26.334;50.194;2022-10-16T16:07:14;82;82;
72793;PMS5003;63436;26.334;50.194;2022-10-16T16:09:39;86;84;
72793;PMS5003;63436;26.334;50.194;2022-10-16T16:12:05;82;80;
72793;PMS5003;63436;26.334;50.194;2022-10-16T16:14:30;90;84;
72793;PMS5003;63436;26.334;50.194;2022-10-16T16:16:55;87;85;
72793;PMS5003;63436;26.334;50.194;2022-10-16T16:19:20;83;82;
72793;PMS5003;63436;26.334;50.194;2022-10-16T16:21:46;86;85;
72793;PMS5003;63436;26.334;50.194;2022-10-16T16:24:11;90;87;
72793;PMS5003;63436;26.334;50.194;2022-10-16T16:26:37;87;87;
72793;PMS5003;63436;26.334;50.194;2022-10-16T16:29:03;84;82;
72793;PMS5003;63436;26.334;50.194;2022-10-16T16:31:28;96;91;
72793;PMS5003;63436;26.334;50.194;2022-10-16T16:33:53;90;89;
72793;PMS5003;63436;26.334;50.194;2022-10-16T16:36:18;92;90;
72793;PMS5003;63436;26.334;50.194;2022-10-16T16:38:43;93;89;